Time;durP1;ratioP1;P1;durP2;ratioP2;P2;SDS_P1;SDS_P2;PMS_P1;PMS_P2;Temp;Humidity;BMP_temperature;BMP_pressure;BME280_temperature;BME280_humidity;BME280_pressure;Samples;Min_cycle;Max_cycle;Signal;HPM_P1;HPM_P2
2023/05/07 00:00:08;;;;;;;9.43;6.05;;;10.40;99.90;;;;;;5026200;28;20053;-52
2023/05/07 00:02:37;;;;;;;9.38;5.32;;;10.30;99.90;;;;;;5046540;28;20102;-53
2023/05/07 00:05:05;;;;;;;13.02;6.38;;;10.40;99.90;;;;;;5045358;28;20024;-51
2023/05/07 00:07:32;;;;;;;8.55;6.35;;;10.40;99.90;;;;;;5039642;28;20022;-53
2023/05/07 00:09:59;;;;;;;13.27;7.25;;;10.40;99.90;;;;;;5041050;28;20068;-52
2023/05/07 00:12:27;;;;;;;8.60;5.13;;;10.40;99.90;;;;;;5044860;28;20017;-53
2023/05/07 00:14:54;;;;;;;12.98;4.90;;;10.30;99.90;;;;;;5045774;28;20477;-50
2023/05/07 00:17:22;;;;;;;12.30;5.60;;;10.20;99.90;;;;;;5041798;28;20096;-49
2023/05/07 00:19:49;;;;;;;9.75;5.05;;;10.20;99.90;;;;;;5040024;28;20033;-53
2023/05/07 00:22:17;;;;;;;7.20;4.82;;;10.10;99.90;;;;;;5046393;28;20104;-54
2023/05/07 00:24:44;;;;;;;11.05;7.28;;;10.10;99.90;;;;;;5048370;28;20091;-54
2023/05/07 00:27:12;;;;;;;9.00;5.47;;;10.20;99.90;;;;;;5046540;28;20086;-53
2023/05/07 00:29:39;;;;;;;10.40;5.50;;;10.20;99.90;;;;;;5043639;28;20035;-51
2023/05/07 00:32:07;;;;;;;11.32;5.40;;;10.30;99.90;;;;;;5042712;28;20109;-51
2023/05/07 00:34:34;;;;;;;9.60;4.97;;;10.40;99.90;;;;;;5019972;28;20098;-52
2023/05/07 00:37:02;;;;;;;10.55;4.90;;;10.60;99.90;;;;;;5038535;28;20021;-54
2023/05/07 00:39:30;;;;;;;10.18;5.50;;;10.50;99.90;;;;;;5044996;28;20482;-51
2023/05/07 00:41:57;;;;;;;8.05;3.88;;;10.50;99.90;;;;;;5032918;28;20494;-55
2023/05/07 00:44:25;;;;;;;8.82;4.68;;;10.60;99.90;;;;;;5040201;28;20045;-53
2023/05/07 00:46:52;;;;;;;9.18;5.22;;;10.90;99.90;;;;;;5037936;28;20040;-53
2023/05/07 00:49:20;;;;;;;10.30;4.40;;;11.20;99.90;;;;;;5026959;28;20528;-53
2023/05/07 00:51:48;;;;;;;6.82;4.05;;;11.60;99.90;;;;;;5029214;28;20029;-53
2023/05/07 00:54:15;;;;;;;4.13;2.90;;;11.90;99.90;;;;;;5048245;28;20555;-53
2023/05/07 00:56:43;;;;;;;4.55;2.40;;;12.10;99.90;;;;;;5047867;28;20032;-56
2023/05/07 00:59:11;;;;;;;6.10;1.67;;;12.30;99.90;;;;;;5041836;28;20028;-51
2023/05/07 01:01:39;;;;;;;9.10;3.10;;;12.50;99.90;;;;;;5039109;28;20035;-55
2023/05/07 01:04:06;;;;;;;2.28;1.02;;;12.70;99.90;;;;;;5047736;28;20040;-56
2023/05/07 01:06:34;;;;;;;3.05;1.00;;;12.90;99.90;;;;;;5049454;28;20477;-55
2023/05/07 01:09:04;;;;;;;3.03;0.93;;;13.10;99.90;;;;;;5030174;28;20044;-52
2023/05/07 01:11:32;;;;;;;2.10;0.75;;;13.20;99.90;;;;;;5047157;28;20033;-56
2023/05/07 01:14:00;;;;;;;2.47;1.55;;;13.20;99.90;;;;;;5048606;28;20041;-57
2023/05/07 01:16:28;;;;;;;2.33;1.00;;;13.40;99.90;;;;;;5046714;28;20017;-57
2023/05/07 01:18:55;;;;;;;3.67;1.00;;;13.40;99.90;;;;;;5046457;28;20470;-55
2023/05/07 01:21:26;;;;;;;3.53;1.70;;;13.50;99.90;;;;;;5043836;28;20116;-56
2023/05/07 01:23:56;;;;;;;1.50;0.73;;;13.70;99.90;;;;;;5046112;28;20052;-58
2023/05/07 01:26:24;;;;;;;2.25;1.15;;;13.80;99.90;;;;;;5051450;28;20029;-56
2023/05/07 01:28:51;;;;;;;1.70;0.90;;;13.90;99.90;;;;;;5030520;28;20096;-57
2023/05/07 01:31:19;;;;;;;1.67;0.80;;;14.10;99.90;;;;;;5047395;28;20494;-56
2023/05/07 01:33:48;;;;;;;2.95;0.90;;;14.10;99.90;;;;;;5028467;28;20028;-56
2023/05/07 01:36:18;;;;;;;1.70;1.05;;;14.10;99.90;;;;;;5027470;28;20060;-57
2023/05/07 01:38:46;;;;;;;4.95;1.70;;;14.10;99.90;;;;;;5049226;28;20020;-58
2023/05/07 01:41:13;;;;;;;3.17;1.25;;;14.10;99.90;;;;;;5041761;28;20535;-58
2023/05/07 01:43:42;;;;;;;4.28;1.10;;;14.10;99.90;;;;;;5046663;28;20037;-58
2023/05/07 01:46:11;;;;;;;3.83;1.10;;;14.20;99.90;;;;;;5048440;28;20108;-58
2023/05/07 01:48:39;;;;;;;1.30;0.47;;;14.20;99.90;;;;;;5039862;28;20045;-59
2023/05/07 01:51:08;;;;;;;1.45;0.60;;;14.30;99.90;;;;;;5018503;28;20486;-54
2023/05/07 01:53:39;;;;;;;2.97;1.25;;;14.30;99.90;;;;;;5032755;28;20479;-58
2023/05/07 01:56:07;;;;;;;1.40;0.70;;;14.30;99.90;;;;;;5051148;28;20029;-58
2023/05/07 01:58:34;;;;;;;2.53;1.05;;;14.50;99.90;;;;;;5042117;28;20103;-58
2023/05/07 02:01:02;;;;;;;2.20;1.00;;;14.50;99.90;;;;;;5048532;28;20032;-58
2023/05/07 02:03:30;;;;;;;2.50;0.82;;;14.60;99.90;;;;;;5033420;28;20037;-59
2023/05/07 02:05:57;;;;;;;0.77;0.50;;;14.80;99.90;;;;;;5043764;28;20034;-59
2023/05/07 02:08:25;;;;;;;2.17;0.60;;;15.00;99.90;;;;;;5044830;28;20040;-58
2023/05/07 02:10:53;;;;;;;3.00;0.90;;;15.10;99.90;;;;;;5038356;28;20029;-58
2023/05/07 02:13:22;;;;;;;2.15;0.82;;;15.10;99.90;;;;;;5051200;28;20032;-57
2023/05/07 02:15:50;;;;;;;1.35;0.75;;;15.20;99.90;;;;;;5031590;28;20500;-55
2023/05/07 02:18:18;;;;;;;1.88;0.90;;;15.10;99.90;;;;;;5038218;28;20108;-58
2023/05/07 02:20:45;;;;;;;2.15;1.02;;;15.00;99.90;;;;;;5050743;28;20386;-59
2023/05/07 02:23:13;;;;;;;1.92;0.75;;;14.70;99.90;;;;;;5042124;28;20038;-58
2023/05/07 02:25:41;;;;;;;3.13;0.50;;;14.00;99.90;;;;;;5038162;28;20093;-55
2023/05/07 02:28:08;;;;;;;2.30;0.50;;;13.00;99.90;;;;;;5031434;28;20389;-57
2023/05/07 02:30:37;;;;;;;6.18;0.80;;;12.00;99.90;;;;;;5037155;28;20078;-55
2023/05/07 02:33:04;;;;;;;0.50;0.30;;;11.40;99.90;;;;;;5032793;28;20045;-54
2023/05/07 02:35:32;;;;;;;0.57;0.32;;;10.90;99.90;;;;;;5050803;28;20057;-56
2023/05/07 02:37:59;;;;;;;1.23;0.40;;;10.60;99.90;;;;;;5050800;28;20025;-53
2023/05/07 02:40:27;;;;;;;3.67;0.35;;;10.40;99.90;;;;;;5037610;28;20018;-54
2023/05/07 02:42:54;;;;;;;0.50;0.30;;;10.40;99.90;;;;;;5022353;28;20044;-51
2023/05/07 02:45:22;;;;;;;0.43;0.22;;;10.70;99.90;;;;;;5037948;28;20021;-57
2023/05/07 02:47:49;;;;;;;2.60;0.47;;;11.00;99.90;;;;;;5030519;28;20056;-56
2023/05/07 02:50:17;;;;;;;2.25;0.90;;;11.60;99.90;;;;;;5035103;28;20018;-57
2023/05/07 02:52:44;;;;;;;2.20;0.50;;;12.30;99.90;;;;;;5036895;28;20017;-54
2023/05/07 02:55:12;;;;;;;1.73;0.55;;;13.00;99.90;;;;;;5043024;28;20116;-55
2023/05/07 02:57:39;;;;;;;1.02;0.40;;;13.50;99.90;;;;;;5043499;28;20552;-53
2023/05/07 03:00:19;;;;;;;1.63;0.30;;;13.90;99.90;;;;;;5045681;28;20029;-53
2023/05/07 03:02:46;;;;;;;0.35;0.35;;;14.20;99.90;;;;;;5044200;28;20033;-53
2023/05/07 03:05:14;;;;;;;0.50;0.28;;;14.00;99.90;;;;;;5039864;28;20033;-53
2023/05/07 03:07:45;;;;;;;0.90;0.40;;;13.90;99.90;;;;;;5048097;28;20110;-53
2023/05/07 03:10:12;;;;;;;0.60;0.30;;;13.90;99.90;;;;;;5040036;28;20068;-57
2023/05/07 03:12:40;;;;;;;0.93;0.30;;;13.90;99.90;;;;;;5045310;28;20021;-56
2023/05/07 03:15:08;;;;;;;1.80;0.30;;;14.00;99.90;;;;;;5041612;28;20036;-55
2023/05/07 03:17:35;;;;;;;0.65;0.32;;;13.90;99.90;;;;;;5050086;28;20482;-56
2023/05/07 03:20:03;;;;;;;1.13;0.47;;;13.80;99.90;;;;;;5031288;28;20029;-56
2023/05/07 03:22:31;;;;;;;0.25;0.22;;;13.70;99.90;;;;;;5045758;28;20071;-56
2023/05/07 03:24:58;;;;;;;0.50;0.40;;;13.70;99.90;;;;;;5050835;28;20501;-56
2023/05/07 03:27:25;;;;;;;0.60;0.30;;;13.50;99.90;;;;;;5042725;28;20120;-57
2023/05/07 03:29:53;;;;;;;1.30;0.40;;;13.50;99.90;;;;;;5045523;28;20032;-55
2023/05/07 03:32:20;;;;;;;2.38;0.40;;;13.50;99.90;;;;;;5044206;28;20040;-58
2023/05/07 03:34:48;;;;;;;0.68;0.40;;;13.70;99.90;;;;;;5029524;28;20028;-55
2023/05/07 03:37:15;;;;;;;0.82;0.40;;;13.90;99.90;;;;;;5024201;28;20146;-55
2023/05/07 03:39:43;;;;;;;1.23;0.30;;;14.10;99.90;;;;;;5045513;28;20029;-57
2023/05/07 03:42:10;;;;;;;1.10;0.47;;;14.20;99.90;;;;;;5039636;28;20061;-58
2023/05/07 03:44:38;;;;;;;0.98;0.60;;;14.30;99.90;;;;;;5047280;28;20383;-57
2023/05/07 03:47:05;;;;;;;0.80;0.40;;;14.40;99.90;;;;;;5041138;28;20096;-54
2023/05/07 03:49:33;;;;;;;1.45;0.40;;;14.60;99.90;;;;;;5029676;28;20485;-58
2023/05/07 03:52:00;;;;;;;0.65;0.40;;;14.80;99.90;;;;;;5034540;28;20379;-56
2023/05/07 03:54:28;;;;;;;1.05;0.40;;;15.10;99.90;;;;;;5034073;28;20064;-55
2023/05/07 03:56:55;;;;;;;1.45;0.40;;;15.30;99.90;;;;;;5034559;28;20017;-52
2023/05/07 03:59:23;;;;;;;0.85;0.22;;;15.50;99.90;;;;;;5046799;28;20103;-56
2023/05/07 04:01:50;;;;;;;1.23;0.30;;;15.60;99.90;;;;;;5040976;28;20043;-55
2023/05/07 04:04:18;;;;;;;0.63;0.40;;;15.60;99.90;;;;;;5047250;28;20483;-55
2023/05/07 04:06:45;;;;;;;0.40;0.20;;;15.70;99.90;;;;;;5043944;28;20023;-56
2023/05/07 04:09:13;;;;;;;1.77;0.20;;;15.60;99.20;;;;;;5047905;28;20039;-55
2023/05/07 04:11:41;;;;;;;0.38;0.30;;;15.50;99.90;;;;;;5025374;28;20479;-55
2023/05/07 04:14:08;;;;;;;0.50;0.28;;;15.50;98.80;;;;;;5041736;28;20434;-53
2023/05/07 04:16:36;;;;;;;0.20;0.20;;;15.20;95.50;;;;;;5053511;28;20028;-53
2023/05/07 04:19:04;;;;;;;1.33;0.40;;;14.90;96.50;;;;;;5040449;28;20052;-51
2023/05/07 04:21:31;;;;;;;0.82;0.38;;;14.60;95.10;;;;;;5036715;28;20029;-55
2023/05/07 04:23:58;;;;;;;0.95;0.40;;;14.30;96.50;;;;;;5029430;28;20043;-52
2023/05/07 04:26:26;;;;;;;1.35;0.35;;;14.10;96.50;;;;;;5049814;28;20545;-55
2023/05/07 04:28:53;;;;;;;2.40;0.32;;;13.90;97.10;;;;;;5049224;28;20029;-57
2023/05/07 04:31:21;;;;;;;1.02;0.20;;;13.80;98.30;;;;;;5052139;28;20171;-52
2023/05/07 04:33:48;;;;;;;0.63;0.20;;;14.00;94.40;;;;;;5050855;28;20016;-54
2023/05/07 04:36:16;;;;;;;1.98;0.47;;;14.00;96.50;;;;;;5026384;28;20036;-54
2023/05/07 04:38:43;;;;;;;1.30;0.45;;;14.20;94.80;;;;;;5037915;28;20036;-54
2023/05/07 04:41:12;;;;;;;1.25;0.20;;;14.20;93.70;;;;;;5041633;28;20432;-55
2023/05/07 04:43:41;;;;;;;0.77;0.28;;;14.20;88.10;;;;;;5049552;28;20519;-54
2023/05/07 04:46:08;;;;;;;0.20;0.20;;;14.20;87.40;;;;;;5022828;28;20029;-55
2023/05/07 04:48:36;;;;;;;0.93;0.30;;;14.20;84.90;;;;;;5046504;28;20052;-53
2023/05/07 04:51:03;;;;;;;0.40;0.28;;;14.30;83.40;;;;;;5042618;28;20018;-50
2023/05/07 04:53:31;;;;;;;0.73;0.32;;;14.40;79.00;;;;;;5037859;28;20495;-61
2023/05/07 04:55:59;;;;;;;1.73;0.30;;;14.50;77.70;;;;;;5033070;28;20029;-53
2023/05/07 04:58:27;;;;;;;1.40;0.32;;;14.60;77.80;;;;;;5042461;28;20033;-52
2023/05/07 05:00:54;;;;;;;1.67;0.30;;;14.50;72.30;;;;;;5045350;28;20078;-55
2023/05/07 05:03:22;;;;;;;1.10;0.43;;;14.50;75.10;;;;;;5033954;28;20044;-55
2023/05/07 05:05:51;;;;;;;0.25;0.25;;;14.50;75.80;;;;;;5032265;28;20457;-52
2023/05/07 05:08:19;;;;;;;0.70;0.45;;;14.50;74.70;;;;;;5050974;28;20035;-54
2023/05/07 05:10:48;;;;;;;2.03;0.50;;;14.50;72.90;;;;;;5038771;28;20067;-52
2023/05/07 05:13:16;;;;;;;0.90;0.30;;;14.50;74.70;;;;;;5050810;28;20033;-51
2023/05/07 05:15:43;;;;;;;2.63;0.40;;;14.50;73.20;;;;;;5033749;28;20025;-54
2023/05/07 05:18:11;;;;;;;0.60;0.45;;;14.50;73.10;;;;;;5052135;28;20021;-51
2023/05/07 05:20:38;;;;;;;0.65;0.40;;;14.40;73.10;;;;;;5052162;28;20561;-54
2023/05/07 05:23:06;;;;;;;0.77;0.50;;;14.40;74.10;;;;;;5051187;28;20040;-53
2023/05/07 05:25:33;;;;;;;1.33;0.63;;;14.40;75.70;;;;;;5031879;28;20731;-51
2023/05/07 05:28:01;;;;;;;0.93;0.47;;;14.30;74.80;;;;;;5033718;28;20487;-54
2023/05/07 05:30:28;;;;;;;0.98;0.60;;;14.30;76.00;;;;;;5045800;28;20137;-51
2023/05/07 05:32:56;;;;;;;2.78;0.82;;;14.20;76.70;;;;;;5036587;28;20076;-56
2023/05/07 05:35:23;;;;;;;1.15;0.80;;;14.20;75.50;;;;;;5030895;28;20029;-58
2023/05/07 05:37:51;;;;;;;2.03;0.77;;;14.10;76.50;;;;;;5017322;28;20056;-57
2023/05/07 05:40:18;;;;;;;0.55;0.55;;;14.00;74.60;;;;;;5051530;28;20020;-56
2023/05/07 05:42:45;;;;;;;1.13;0.80;;;14.00;73.80;;;;;;5051832;28;20021;-57
2023/05/07 05:45:13;;;;;;;0.77;0.73;;;13.90;74.90;;;;;;5033755;28;20079;-57
2023/05/07 05:47:41;;;;;;;2.05;0.70;;;13.80;76.70;;;;;;5051546;28;20048;-57
2023/05/07 05:50:09;;;;;;;0.75;0.52;;;13.70;78.00;;;;;;5030208;28;20079;-58
2023/05/07 05:52:36;;;;;;;1.83;0.52;;;13.60;78.40;;;;;;5031839;28;20022;-57
2023/05/07 05:55:04;;;;;;;1.40;0.63;;;13.60;78.90;;;;;;5042293;28;20036;-58
2023/05/07 05:57:32;;;;;;;0.70;0.50;;;13.50;80.00;;;;;;5049167;28;20029;-58
2023/05/07 06:00:00;;;;;;;0.98;0.50;;;13.40;78.30;;;;;;5031626;28;20029;-55
2023/05/07 06:02:28;;;;;;;0.95;0.70;;;13.40;80.80;;;;;;5043409;28;20690;-55
2023/05/07 06:04:55;;;;;;;0.65;0.50;;;13.30;79.70;;;;;;5041660;28;20481;-53
2023/05/07 06:07:23;;;;;;;0.93;0.50;;;13.30;78.10;;;;;;5055904;28;20131;-53
2023/05/07 06:09:50;;;;;;;0.68;0.40;;;13.20;79.70;;;;;;5047680;28;20900;-54
2023/05/07 06:12:18;;;;;;;0.70;0.45;;;13.10;80.20;;;;;;5034743;28;20021;-57
2023/05/07 06:14:45;;;;;;;1.02;0.45;;;13.10;80.70;;;;;;5047094;28;20028;-54
2023/05/07 06:17:12;;;;;;;0.95;0.63;;;13.00;81.90;;;;;;5029868;28;20427;-53
2023/05/07 06:19:40;;;;;;;0.80;0.60;;;12.90;81.70;;;;;;5012041;28;20033;-53
2023/05/07 06:22:07;;;;;;;0.98;0.50;;;12.90;82.90;;;;;;5028679;28;20028;-55
2023/05/07 06:24:35;;;;;;;1.00;0.60;;;12.80;82.90;;;;;;5032923;28;20586;-50
2023/05/07 06:27:02;;;;;;;0.80;0.55;;;12.70;84.00;;;;;;5044990;28;20040;-57
2023/05/07 06:29:33;;;;;;;0.80;0.47;;;12.60;83.10;;;;;;5046696;28;20029;-53
2023/05/07 06:32:14;;;;;;;0.60;0.43;;;12.50;86.20;;;;;;5048391;28;20032;-57
2023/05/07 06:34:42;;;;;;;0.68;0.57;;;12.50;89.00;;;;;;5034620;28;20091;-54
2023/05/07 06:37:10;;;;;;;0.80;0.47;;;12.40;90.20;;;;;;5042897;28;20031;-59
2023/05/07 06:39:37;;;;;;;0.45;0.35;;;12.30;88.40;;;;;;5039240;28;20060;-56
2023/05/07 06:42:05;;;;;;;0.65;0.50;;;12.30;89.40;;;;;;5045743;28;20040;-55
2023/05/07 06:44:33;;;;;;;0.30;0.28;;;12.20;89.80;;;;;;5041960;28;20033;-55
2023/05/07 06:47:00;;;;;;;0.45;0.40;;;12.10;90.00;;;;;;5034175;28;20107;-56
2023/05/07 06:49:28;;;;;;;0.70;0.50;;;12.00;91.00;;;;;;5024175;28;20033;-56
2023/05/07 06:51:55;;;;;;;0.50;0.43;;;11.90;91.30;;;;;;5025763;28;20108;-56
2023/05/07 06:54:23;;;;;;;1.27;0.57;;;11.80;92.50;;;;;;5038887;28;20328;-55
2023/05/07 06:56:51;;;;;;;0.90;0.40;;;11.80;92.40;;;;;;5027481;28;20029;-57
2023/05/07 06:59:19;;;;;;;0.43;0.40;;;11.60;94.00;;;;;;5044388;28;20397;-52
2023/05/07 07:01:46;;;;;;;0.35;0.22;;;11.50;93.80;;;;;;5033437;28;20030;-56
2023/05/07 07:04:14;;;;;;;0.30;0.30;;;11.40;95.70;;;;;;5033485;28;20211;-54
2023/05/07 07:06:42;;;;;;;0.45;0.40;;;11.30;95.50;;;;;;5016167;28;20028;-54
2023/05/07 07:09:09;;;;;;;0.63;0.45;;;11.20;96.90;;;;;;5038875;28;20036;-56
2023/05/07 07:11:37;;;;;;;0.82;0.40;;;11.10;97.80;;;;;;5039813;28;20056;-55
2023/05/07 07:14:04;;;;;;;0.95;0.50;;;10.90;99.00;;;;;;5020587;28;20026;-59
2023/05/07 07:16:32;;;;;;;0.70;0.60;;;10.80;99.90;;;;;;5041827;28;20468;-58
2023/05/07 07:18:59;;;;;;;0.93;0.60;;;10.70;99.90;;;;;;5038702;28;20068;-58
2023/05/07 07:21:27;;;;;;;2.30;0.70;;;10.60;99.90;;;;;;5042932;28;20040;-51
2023/05/07 07:23:55;;;;;;;1.27;0.70;;;10.50;99.90;;;;;;5039330;28;20124;-52
2023/05/07 07:26:22;;;;;;;1.75;0.88;;;10.40;99.90;;;;;;5042253;28;20056;-55
2023/05/07 07:28:50;;;;;;;0.95;0.50;;;10.30;99.90;;;;;;5040467;28;21514;-53
2023/05/07 07:31:17;;;;;;;1.25;0.60;;;10.10;99.90;;;;;;5016581;28;20465;-52
2023/05/07 07:33:45;;;;;;;0.63;0.60;;;10.00;99.90;;;;;;5034793;28;20025;-55
2023/05/07 07:36:12;;;;;;;5.18;0.70;;;9.80;99.90;;;;;;5038647;28;20103;-58
2023/05/07 07:38:40;;;;;;;0.60;0.50;;;9.60;99.90;;;;;;5040593;28;20113;-57
2023/05/07 07:41:09;;;;;;;12.93;4.75;;;9.40;99.90;;;;;;5040402;28;20064;-58
2023/05/07 07:43:36;;;;;;;3.00;1.50;;;9.30;99.90;;;;;;5028662;28;20127;-58
2023/05/07 07:46:04;;;;;;;2.50;1.30;;;9.10;99.90;;;;;;5047383;28;20024;-61
2023/05/07 07:48:32;;;;;;;1.17;0.57;;;8.90;99.90;;;;;;5021098;28;20510;-58
2023/05/07 07:50:59;;;;;;;1.33;0.70;;;8.80;99.90;;;;;;5056070;28;20028;-58
2023/05/07 07:53:26;;;;;;;1.02;0.70;;;8.60;99.90;;;;;;5066572;28;20050;-59
2023/05/07 07:55:54;;;;;;;0.80;0.57;;;8.50;99.90;;;;;;5048509;28;20025;-58
2023/05/07 07:58:22;;;;;;;1.42;0.75;;;8.40;99.90;;;;;;5040326;28;20028;-59
2023/05/07 08:00:50;;;;;;;2.95;0.70;;;8.20;99.90;;;;;;5023618;28;20502;-58
2023/05/07 08:03:19;;;;;;;1.63;0.75;;;8.10;99.90;;;;;;5033353;28;20121;-60
2023/05/07 08:05:47;;;;;;;1.88;0.88;;;8.00;99.90;;;;;;5026721;28;20022;-59
2023/05/07 08:08:14;;;;;;;1.15;0.68;;;7.90;99.90;;;;;;5007594;28;20111;-60
2023/05/07 08:10:42;;;;;;;1.88;0.85;;;7.90;99.90;;;;;;5031137;28;20033;-59
2023/05/07 08:13:09;;;;;;;2.15;0.88;;;7.80;99.90;;;;;;5045668;28;20029;-58
2023/05/07 08:15:37;;;;;;;1.27;0.77;;;7.90;99.90;;;;;;5026069;28;20082;-59
2023/05/07 08:18:05;;;;;;;3.95;1.30;;;8.00;99.90;;;;;;5045117;28;20033;-59
2023/05/07 08:20:33;;;;;;;1.90;1.20;;;8.00;99.90;;;;;;5019467;28;20389;-59
2023/05/07 08:23:00;;;;;;;1.80;1.00;;;8.10;99.90;;;;;;5045916;28;20059;-59
2023/05/07 08:25:28;;;;;;;3.40;1.10;;;8.20;99.90;;;;;;5045593;28;20033;-58
2023/05/07 08:27:55;;;;;;;1.75;1.02;;;8.30;99.90;;;;;;5045481;28;20099;-59
2023/05/07 08:30:23;;;;;;;3.53;1.58;;;8.40;99.90;;;;;;5037879;28;20029;-59
2023/05/07 08:32:50;;;;;;;2.60;1.48;;;8.50;99.90;;;;;;5024274;28;20036;-58
2023/05/07 08:35:17;;;;;;;3.13;1.90;;;8.60;99.90;;;;;;5045234;28;20021;-59
2023/05/07 08:37:45;;;;;;;2.90;1.48;;;8.60;99.90;;;;;;5044924;28;20033;-59
2023/05/07 08:40:12;;;;;;;3.75;1.98;;;8.60;99.90;;;;;;5024666;28;20472;-59
2023/05/07 08:42:41;;;;;;;4.65;1.92;;;8.60;99.90;;;;;;5042630;28;20032;-59
2023/05/07 08:45:11;;;;;;;5.13;1.75;;;8.70;99.90;;;;;;5041875;28;20048;-59
2023/05/07 08:48:02;;;;;;;6.75;2.10;;;8.70;99.90;;;;;;5040819;28;20120;-59
2023/05/07 08:50:29;;;;;;;4.63;1.67;;;8.80;99.90;;;;;;5025664;28;20037;-59
2023/05/07 08:52:58;;;;;;;2.38;1.42;;;8.80;99.90;;;;;;5016593;28;20030;-58
2023/05/07 08:55:25;;;;;;;2.70;1.30;;;8.90;99.90;;;;;;5019715;28;20342;-59
2023/05/07 08:57:53;;;;;;;2.80;1.55;;;8.90;99.90;;;;;;5021764;28;20021;-59
2023/05/07 09:00:20;;;;;;;3.63;1.92;;;8.90;99.90;;;;;;5015386;28;20029;-59
2023/05/07 09:02:48;;;;;;;2.97;1.27;;;8.80;99.90;;;;;;5019671;28;20025;-59
2023/05/07 09:05:15;;;;;;;3.10;1.80;;;8.80;99.90;;;;;;5019669;28;20528;-59
2023/05/07 09:07:43;;;;;;;3.30;1.42;;;8.80;99.90;;;;;;5025738;28;20120;-59
2023/05/07 09:10:10;;;;;;;3.67;1.38;;;9.00;99.90;;;;;;5015581;28;20506;-59
2023/05/07 09:12:39;;;;;;;2.78;0.90;;;9.10;99.90;;;;;;5024409;28;20033;-59
2023/05/07 09:15:07;;;;;;;1.80;1.00;;;9.20;99.90;;;;;;5022876;28;20031;-59
2023/05/07 09:17:34;;;;;;;2.92;0.50;;;9.30;99.90;;;;;;5027998;28;20802;-60
2023/05/07 09:20:06;;;;;;;1.60;0.85;;;9.40;99.90;;;;;;5016764;28;20063;-58
2023/05/07 09:22:34;;;;;;;1.38;0.70;;;9.70;99.90;;;;;;5029714;28;20493;-58
2023/05/07 09:25:02;;;;;;;1.33;0.52;;;9.70;99.90;;;;;;5022381;28;20123;-59
2023/05/07 09:27:30;;;;;;;0.70;0.40;;;9.70;99.90;;;;;;5016755;28;20021;-57
2023/05/07 09:29:58;;;;;;;0.70;0.30;;;9.80;99.90;;;;;;5029302;28;20031;-58
2023/05/07 09:32:27;;;;;;;0.40;0.30;;;9.90;99.90;;;;;;5014782;28;20092;-59
2023/05/07 09:34:54;;;;;;;0.20;0.20;;;10.10;99.90;;;;;;5029252;28;20679;-60
2023/05/07 09:37:22;;;;;;;0.35;0.20;;;10.10;99.90;;;;;;5029842;28;20552;-59
2023/05/07 09:39:51;;;;;;;0.15;0.15;;;10.20;99.90;;;;;;5020453;28;20034;-59
2023/05/07 09:42:26;;;;;;;0.50;0.20;;;10.30;99.90;;;;;;5009807;28;20018;-59
2023/05/07 09:44:54;;;;;;;0.10;0.10;;;10.30;99.90;;;;;;5023394;28;20042;-59
2023/05/07 09:47:25;;;;;;;3.60;0.20;;;10.30;99.90;;;;;;5030391;28;20044;-58
2023/05/07 09:50:00;;;;;;;0.20;0.10;;;10.30;99.90;;;;;;5039940;28;20037;-57
2023/05/07 09:52:33;;;;;;;0.15;0.15;;;10.30;99.90;;;;;;5044426;28;20029;-59
2023/05/07 09:55:01;;;;;;;0.17;0.10;;;10.30;99.90;;;;;;5047954;28;20569;-60
2023/05/07 09:57:29;;;;;;;0.13;0.10;;;10.20;99.90;;;;;;5047366;28;20029;-58
2023/05/07 09:59:58;;;;;;;0.65;0.17;;;10.20;99.90;;;;;;5030691;28;20035;-59
2023/05/07 10:02:30;;;;;;;0.15;0.15;;;10.20;99.90;;;;;;5042169;28;20033;-59
2023/05/07 10:05:00;;;;;;;0.20;0.20;;;10.20;99.90;;;;;;5047944;28;20401;-59
2023/05/07 10:07:28;;;;;;;0.30;0.20;;;10.20;99.90;;;;;;5047824;28;20416;-58
2023/05/07 10:09:56;;;;;;;0.20;0.20;;;10.20;99.90;;;;;;5046020;28;20025;-58
2023/05/07 10:12:24;;;;;;;0.20;0.20;;;10.10;99.90;;;;;;5046669;28;20040;-58
2023/05/07 10:14:54;;;;;;;0.20;0.20;;;10.20;99.90;;;;;;5046915;28;20033;-57
2023/05/07 10:17:25;;;;;;;0.15;0.10;;;10.20;99.90;;;;;;5028821;28;20033;-58
2023/05/07 10:19:54;;;;;;;0.10;0.10;;;10.20;99.90;;;;;;5042618;28;20060;-58
2023/05/07 10:22:24;;;;;;;0.22;0.20;;;10.20;99.90;;;;;;5045811;28;20055;-55
2023/05/07 10:24:54;;;;;;;0.38;0.20;;;10.20;99.90;;;;;;5042019;28;20098;-58
2023/05/07 10:27:23;;;;;;;0.28;0.22;;;10.10;99.90;;;;;;5045011;28;20111;-58
2023/05/07 10:29:53;;;;;;;0.15;0.10;;;10.10;99.90;;;;;;5032463;28;20030;-58
2023/05/07 10:32:45;;;;;;;0.10;0.10;;;10.00;99.90;;;;;;5029549;28;20022;-59
2023/05/07 10:35:30;;;;;;;1.38;0.10;;;10.00;99.90;;;;;;5036566;28;20036;-58
2023/05/07 10:37:57;;;;;;;0.05;0.05;;;10.00;99.90;;;;;;5010516;28;20502;-58
2023/05/07 10:40:25;;;;;;;1.98;0.20;;;10.00;99.90;;;;;;5028337;28;20030;-55
2023/05/07 10:43:01;;;;;;;0.03;0.03;;;10.00;99.90;;;;;;5028414;28;20053;-58
2023/05/07 10:45:29;;;;;;;0.10;0.10;;;9.90;99.90;;;;;;5035284;28;20109;-59
2023/05/07 10:48:16;;;;;;;0.10;0.10;;;9.90;99.90;;;;;;5048041;28;20049;-58
2023/05/07 10:50:47;;;;;;;0.20;0.20;;;9.90;99.90;;;;;;5027934;28;20030;-59
2023/05/07 10:53:18;;;;;;;0.10;0.10;;;9.90;99.90;;;;;;5035904;28;20536;-59
2023/05/07 10:55:49;;;;;;;0.10;0.10;;;9.90;99.90;;;;;;5035643;28;20029;-58
2023/05/07 10:58:29;;;;;;;0.10;0.10;;;9.90;99.90;;;;;;5046169;28;20021;-59
2023/05/07 11:01:03;;;;;;;0.20;0.20;;;9.90;99.90;;;;;;5030231;28;20029;-59
2023/05/07 11:03:31;;;;;;;0.17;0.10;;;9.90;99.90;;;;;;5022170;28;20087;-59
2023/05/07 11:06:11;;;;;;;0.22;0.10;;;9.90;99.90;;;;;;5047903;28;20681;-58
2023/05/07 11:08:54;;;;;;;0.10;0.10;;;9.80;99.90;;;;;;5035014;28;20041;-58
2023/05/07 11:11:50;;;;;;;0.20;0.20;;;9.80;99.90;;;;;;5035265;28;20519;-58
2023/05/07 11:14:42;;;;;;;0.93;0.13;;;9.80;99.90;;;;;;5047400;28;20078;-58
2023/05/07 11:17:11;;;;;;;0.13;0.10;;;9.80;99.90;;;;;;5028011;28;20025;-57
2023/05/07 11:19:59;;;;;;;0.10;0.10;;;9.80;99.90;;;;;;5041186;28;20033;-58
2023/05/07 11:22:33;;;;;;;0.10;0.10;;;9.80;99.90;;;;;;5035472;28;20017;-58
2023/05/07 11:25:01;;;;;;;0.20;0.10;;;9.70;99.90;;;;;;5031195;28;20809;-58
2023/05/07 11:27:30;;;;;;;0.63;0.13;;;9.70;99.90;;;;;;5046296;28;20025;-56
2023/05/07 11:29:57;;;;;;;0.20;0.20;;;9.70;99.90;;;;;;5032579;28;20098;-59
2023/05/07 11:32:27;;;;;;;0.10;0.10;;;9.60;99.90;;;;;;5038919;28;20016;-59
2023/05/07 11:34:55;;;;;;;0.10;0.10;;;9.60;99.90;;;;;;5041876;28;20024;-59
2023/05/07 11:37:24;;;;;;;0.20;0.20;;;9.40;99.90;;;;;;5033289;28;20017;-58
2023/05/07 11:40:02;;;;;;;0.20;0.20;;;9.40;99.90;;;;;;5042503;28;20489;-59
2023/05/07 11:42:31;;;;;;;0.28;0.20;;;9.20;99.90;;;;;;5034134;28;20043;-59
2023/05/07 11:44:59;;;;;;;1.65;0.10;;;9.00;99.90;;;;;;5040015;28;20119;-58
2023/05/07 11:47:26;;;;;;;0.20;0.20;;;8.80;99.90;;;;;;5043359;28;20045;-58
2023/05/07 11:49:55;;;;;;;0.88;0.30;;;8.70;99.90;;;;;;5037579;28;20116;-59
2023/05/07 11:52:24;;;;;;;0.22;0.20;;;8.50;99.90;;;;;;5042266;28;20508;-58
2023/05/07 11:54:56;;;;;;;0.10;0.10;;;8.40;99.90;;;;;;5042667;28;20045;-57
2023/05/07 11:57:28;;;;;;;0.63;0.15;;;8.30;99.90;;;;;;5034870;28;20060;-55
2023/05/07 12:00:00;;;;;;;0.47;0.28;;;8.00;99.90;;;;;;5039380;28;20037;-56
2023/05/07 12:02:28;;;;;;;1.98;0.30;;;7.80;99.90;;;;;;5037891;28;20381;-57
2023/05/07 12:04:55;;;;;;;0.28;0.20;;;7.50;99.90;;;;;;5020544;28;20037;-58
2023/05/07 12:07:25;;;;;;;3.83;0.40;;;7.40;99.90;;;;;;5048096;28;20473;-59
2023/05/07 12:09:54;;;;;;;1.23;0.30;;;7.20;99.90;;;;;;5044701;28;20078;-58
2023/05/07 12:12:21;;;;;;;0.95;0.30;;;7.10;99.90;;;;;;5027944;28;20044;-59
2023/05/07 12:14:49;;;;;;;1.95;0.40;;;7.10;99.90;;;;;;5045131;28;20401;-59
2023/05/07 12:17:17;;;;;;;1.10;0.52;;;7.00;99.90;;;;;;5022861;28;20039;-55
2023/05/07 12:19:46;;;;;;;2.05;1.00;;;7.00;99.90;;;;;;5036961;28;20028;-56
2023/05/07 12:22:14;;;;;;;1.70;0.70;;;6.90;99.90;;;;;;5036180;28;20148;-54
2023/05/07 12:24:49;;;;;;;2.65;0.80;;;6.90;99.90;;;;;;5036957;28;20552;-56
2023/05/07 12:27:17;;;;;;;0.20;0.20;;;6.90;99.90;;;;;;5044474;28;20032;-53
2023/05/07 12:29:48;;;;;;;0.80;0.50;;;6.90;99.90;;;;;;5028156;28;20108;-55
2023/05/07 12:32:17;;;;;;;0.60;0.30;;;6.90;99.90;;;;;;5039795;28;20021;-55
2023/05/07 12:34:46;;;;;;;0.32;0.30;;;6.90;99.90;;;;;;5047763;28;20052;-53
2023/05/07 12:37:14;;;;;;;1.70;0.40;;;6.90;99.90;;;;;;5041246;28;20039;-58
2023/05/07 12:40:10;;;;;;;1.13;0.40;;;6.90;99.90;;;;;;5053907;28;20036;-58
2023/05/07 12:42:40;;;;;;;1.92;0.30;;;6.90;99.90;;;;;;5046132;28;20086;-56
2023/05/07 12:45:16;;;;;;;2.58;0.50;;;6.90;99.90;;;;;;5026591;28;20041;-58
2023/05/07 12:47:47;;;;;;;0.30;0.30;;;6.90;99.90;;;;;;5047903;28;20554;-55
2023/05/07 12:50:15;;;;;;;2.67;0.47;;;7.00;99.90;;;;;;5043780;28;20100;-56
2023/05/07 12:52:47;;;;;;;0.28;0.28;;;7.00;99.90;;;;;;5028817;28;20033;-56
2023/05/07 12:55:17;;;;;;;1.42;0.57;;;7.00;99.90;;;;;;5045335;28;20103;-55
2023/05/07 12:57:50;;;;;;;0.45;0.30;;;7.00;99.90;;;;;;5042709;28;20025;-55